Barbados Meteorological Services
Auto gathered TAF list
Powered by Apparatus software
For Flight BA2154
Contact Number 1-(246)-535-0021/2/3/4/5/6
WEB: http://www.barbadosweather.org

**********************************************

2017/09/22 18:18
TAF TBPB 221700Z 2218/2318 11011KT 9999 SCT022= TAF TVSA 221700Z 2218/2318 11005KT 9999 SCT020


**********************************************
2017/09/22 18:23
TAF TAPA 221700Z 2218/2318 12010KT 9999 SCT018 PROB30
TEMPO 2218/2222 SHRA FEW014CB


**********************************************
2017/09/22 18:18
TAF LPPR 221700Z 2218/2318 34010KT CAVOK
BECMG 2219/2221 VRB03KT
BECMG 2301/2303 9999 SCT012 PROB30
TEMPO 2301/2308 18005KT 1500 BR SCT002
BECMG 2312/2315 27007KT FEW018


**********************************************
2017/09/22 18:18
TAF LPPD 221700Z 2218/2318 23017KT 9999 SCT015 BKN030
TEMPO 2218/2220 22020G30KT 5000 RADZ BR SCT006 BKN012
BECMG 2220/2223 26017KT 6000 -RA SCT008 BKN015
TEMPO 2223/2303 26020G30KT 2000 RADZ BR SCT002 BKN004 FEW020TCU
BECMG 2303/2306 36008KT 9999 NSW SCT015 SCT030
BECMG 2309/2312 VRB05KT


**********************************************
2017/09/22 18:03
TAF TAF LPLA 221700Z 2218/2318 24015G25KT 9999 FEW010 SCT018
TEMPO 2218/2224 25018G30KT 7000 -SHRA SCT008 BKN016 PROB40
TEMPO 2221/2224 3000 RA SCT007 BKN014 FEW020TCU
BECMG 2223/2301 32015KT
BECMG 2308/2310 26008KT


**********************************************


**********************************************
2017/09/22 18:20
TAF LPAZ 221700Z 2218/2324 21017KT 9999 SCT015 BKN040 PROB40
TEMPO 2218/2222 5000 -RADZ BR SCT006 BKN010
BECMG 2222/2224 25017KT 8000 -RA SCT006 BKN018
TEMPO 2300/2307 26020G30KT 3000 RADZ BR SCT004 BKN008 FEW020TCU
BECMG 2307/2309 29015KT 9999 NSW SCT012 BKN030
BECMG 2310/2312 VRB05KT SCT020


**********************************************
2017/09/22 18:27
TAF LEVT 221700Z 2218/2318 36006KT 9999 SCT020 TX26/2314Z TN12/2306Z PROB40
TEMPO 2218/2308 3000 BR BKN010 BKN014 PROB40
TEMPO 2300/2308 0350 FG VV001
BECMG 2306/2309 20010KT


**********************************************
2017/09/22 18:28
TAF LEMD 221700Z 2218/2324 VRB05KT CAVOK TX29/2315Z TN13/2306Z
TEMPO 2218/2221 FEW040TCU PROB40
TEMPO 2218/2220 02010G20KT SHRA SCT040CB


**********************************************
2017/09/22 18:27
TAF ELLX 221700Z 2218/2324 31007KT 9999 FEW040 PROB30
TEMPO 2302/2306 4000 BR
BECMG 2306/2309 10011KT
TEMPO 2312/2317 SCT015TCU


**********************************************
2017/09/22 18:17
TAF
AMD EGPK 221811Z 2218/2318 22005KT 9999 SCT040
TEMPO 2308/2315 6000 -RA BKN012


**********************************************
2017/09/22 18:19
TAF EGLL 221706Z 2218/2324 21010KT 9999 SCT040 PROB30
TEMPO 2219/2309 6000 RA
BECMG 2315/2318 15006KT


**********************************************
2017/09/22 18:15
TAF EGKK 221706Z 2218/2324 22008KT 9999 FEW035 PROB30
TEMPO 2221/2310 6000 RA
BECMG 2306/2309 16010KT


**********************************************
2017/09/22 18:15
TAF EGFF 221708Z 2218/2318 20009KT 9999 SCT025
TEMPO 2218/2310 6000 -RADZ BKN014 PROB30
TEMPO 2222/2309 3000 RADZ BR BKN005


**********************************************
2017/09/22 18:15
TAF EGCC 221708Z 2218/2324 VRB05KT 9999 FEW045
TEMPO 2218/2312 6000 -RADZ BKN010 PROB30
TEMPO 2222/2309 3000 BR BKN004 PROB30
TEMPO 2312/2316 BKN012


**********************************************
2017/09/22 18:28
TAF EDDF 221700Z 2218/2324 VRB03KT CAVOK
BECMG 2308/2310 02005KT PROB30
TEMPO 2314/2318 SHRA SCT030TCU


**********************************************
2017/09/22 18:28
TAF EBBR 221710Z 2218/2324 VRB03KT 9999 FEW025
BECMG 2223/2301 4000 BR
BECMG 2301/2303 2000 PROB40
TEMPO 2303/2307 0800 FG BKN001
BECMG 2307/2309 4500
BECMG 2309/2311 9999 NSW


**********************************************